createdAt,value
2019-03-22T00:01:20.842Z,20.30
2019-03-22T00:12:09.231Z,17.53
2019-03-22T00:14:41.563Z,18.97
2019-03-22T00:17:09.635Z,19.07
2019-03-22T00:19:39.829Z,18.53
2019-03-22T00:22:10.215Z,17.63
2019-03-22T00:24:40.811Z,19.43
2019-03-22T00:27:16.415Z,16.10
2019-03-22T00:29:41.563Z,16.30
2019-03-22T00:32:11.706Z,17.93
2019-03-22T00:34:44.220Z,18.37
2019-03-22T00:37:14.407Z,19.07
2019-03-22T00:39:48.137Z,21.63
2019-03-22T00:42:19.147Z,18.50
2019-03-22T00:44:47.911Z,18.00
2019-03-22T00:47:18.160Z,18.23
2019-03-22T00:49:51.144Z,18.80
2019-03-22T00:52:29.998Z,18.80
2019-03-22T00:54:57.707Z,18.13
2019-03-22T01:00:15.713Z,24.53
2019-03-22T01:02:46.910Z,20.50
2019-03-22T01:08:01.227Z,20.73
2019-03-22T01:10:29.781Z,19.97
2019-03-22T01:21:12.375Z,22.93
2019-03-22T01:23:42.461Z,20.03
2019-03-22T01:26:12.585Z,20.37
2019-03-22T01:36:49.267Z,19.30
2019-03-22T01:42:01.942Z,22.27
2019-03-22T01:44:32.590Z,22.80
2019-03-22T01:47:02.694Z,21.00
2019-03-22T01:52:20.289Z,20.93
2019-03-22T01:54:52.933Z,18.23
2019-03-22T01:57:26.229Z,20.07
2019-03-22T01:59:56.829Z,18.77
2019-03-22T02:05:09.970Z,21.30
2019-03-22T02:07:40.028Z,21.77
2019-03-22T02:10:13.258Z,18.97
2019-03-22T02:12:43.390Z,19.50
2019-03-22T02:15:16.958Z,19.03
2019-03-22T02:17:47.045Z,17.60
2019-03-22T02:20:20.992Z,22.63
2019-03-22T02:22:52.862Z,19.23
2019-03-22T02:25:25.867Z,17.67
2019-03-22T02:30:45.513Z,21.67
2019-03-22T02:33:21.141Z,19.37
2019-03-22T02:38:33.259Z,19.80
2019-03-22T02:41:01.516Z,18.40
2019-03-22T02:43:33.721Z,19.00
2019-03-22T02:46:04.505Z,19.47
2019-03-22T02:51:22.870Z,18.73
2019-03-22T03:02:06.480Z,21.13
2019-03-22T03:04:37.111Z,18.07
2019-03-22T03:10:23.536Z,18.70
2019-03-22T03:15:16.654Z,16.93
2019-03-22T03:17:46.825Z,16.97
2019-03-22T03:20:17.184Z,19.63
2019-03-22T03:22:47.403Z,17.97
2019-03-22T03:25:17.881Z,17.97
2019-03-22T03:27:48.510Z,17.57
2019-03-22T03:30:18.699Z,16.97
2019-03-22T03:35:34.193Z,19.10
2019-03-22T03:38:04.440Z,19.37
2019-03-22T03:40:35.104Z,19.47
2019-03-22T03:43:05.322Z,18.17
2019-03-22T03:45:37.998Z,16.60
2019-03-22T03:48:11.011Z,19.70
2019-03-22T03:50:43.958Z,19.17
2019-03-22T03:53:17.260Z,19.63
2019-03-22T03:55:47.473Z,19.10
2019-03-22T03:58:17.646Z,19.53
2019-03-22T04:03:30.034Z,17.67
2019-03-22T04:06:06.359Z,18.87
2019-03-22T04:08:36.485Z,17.63
2019-03-22T04:11:06.730Z,20.67
2019-03-22T04:16:19.323Z,17.03
2019-03-22T04:18:50.774Z,21.20
2019-03-22T04:21:29.837Z,18.50
2019-03-22T04:23:58.774Z,20.17
2019-03-22T04:26:34.017Z,19.83
2019-03-22T04:29:13.677Z,18.27
2019-03-22T04:31:43.906Z,19.50
2019-03-22T04:34:15.709Z,16.53
2019-03-22T04:36:47.824Z,19.30
2019-03-22T04:39:19.713Z,17.50
2019-03-22T04:44:37.639Z,16.60
2019-03-22T04:47:08.375Z,18.73
2019-03-22T04:49:40.472Z,19.43
2019-03-22T04:52:13.050Z,18.97
2019-03-22T04:54:41.162Z,21.77
2019-03-22T04:57:18.785Z,21.03
2019-03-22T04:59:54.124Z,22.47
2019-03-22T05:02:29.031Z,21.53
2019-03-22T05:05:02.177Z,21.53
2019-03-22T05:07:30.196Z,23.80
2019-03-22T05:10:00.577Z,23.47
2019-03-22T05:12:37.030Z,24.27
2019-03-22T05:15:08.993Z,22.90
2019-03-22T05:17:37.383Z,24.20
2019-03-22T05:20:10.615Z,25.93
2019-03-22T05:22:41.172Z,22.00
2019-03-22T05:25:11.325Z,24.03
2019-03-22T05:27:44.586Z,24.00
2019-03-22T05:30:54.261Z,23.37
2019-03-22T05:33:25.514Z,24.70
2019-03-22T05:35:55.540Z,22.00
2019-03-22T05:38:25.403Z,25.10
2019-03-22T05:40:55.573Z,22.60
2019-03-22T05:46:12.144Z,22.67
2019-03-22T05:48:44.129Z,20.77
2019-03-22T05:51:18.310Z,25.10
2019-03-22T05:53:55.323Z,23.33
2019-03-22T05:59:07.621Z,24.57
2019-03-22T06:01:38.161Z,30.03
2019-03-22T06:04:08.393Z,23.87
2019-03-22T06:06:38.586Z,26.83
2019-03-22T06:09:09.338Z,23.00
2019-03-22T06:11:39.857Z,26.13
2019-03-22T06:14:10.076Z,24.47
2019-03-22T06:16:43.048Z,25.77
2019-03-22T06:19:13.281Z,29.60
2019-03-22T06:21:43.812Z,24.90
2019-03-22T06:24:14.033Z,25.40
2019-03-22T06:26:45.461Z,25.67
2019-03-22T06:29:14.903Z,26.83
2019-03-22T06:31:48.144Z,28.13
2019-03-22T06:37:01.747Z,27.50
2019-03-22T06:39:34.632Z,27.90
2019-03-22T06:42:07.332Z,30.47
2019-03-22T06:44:37.532Z,31.97
2019-03-22T06:47:11.286Z,29.70
2019-03-22T06:49:41.494Z,26.60
2019-03-22T06:52:13.149Z,29.07
2019-03-22T06:57:30.142Z,34.73
2019-03-22T07:00:06.537Z,36.80
2019-03-22T07:05:15.348Z,36.90
2019-03-22T07:07:45.567Z,36.33
2019-03-22T07:10:15.796Z,39.83
2019-03-22T07:12:46.320Z,42.47
2019-03-22T07:15:16.488Z,39.70
2019-03-22T07:17:46.764Z,39.10
2019-03-22T07:20:16.920Z,41.00
2019-03-22T07:22:47.110Z,32.67
2019-03-22T07:27:59.693Z,34.23
2019-03-22T07:30:29.790Z,38.37
2019-03-22T07:33:00.028Z,40.63
2019-03-22T07:35:30.180Z,37.97
2019-03-22T07:38:02.801Z,33.23
2019-03-22T07:40:30.529Z,39.60
2019-03-22T07:43:00.678Z,36.90
2019-03-22T07:45:30.899Z,38.87
2019-03-22T07:50:43.495Z,41.17
2019-03-22T07:53:15.356Z,37.47
2019-03-22T07:55:50.592Z,36.33
2019-03-22T08:06:45.139Z,35.83
2019-03-22T08:09:15.325Z,38.33
2019-03-22T08:11:45.479Z,35.73
2019-03-22T08:14:16.952Z,36.57
2019-03-22T08:16:45.836Z,35.27
2019-03-22T08:19:16.007Z,36.43
2019-03-22T08:21:48.770Z,32.43
2019-03-22T08:24:17.685Z,34.30
2019-03-22T08:26:49.556Z,35.47
2019-03-22T08:29:22.785Z,37.83
2019-03-22T08:31:56.301Z,32.70
2019-03-22T08:34:31.290Z,37.73
2019-03-22T08:37:12.015Z,38.47
2019-03-22T08:39:45.071Z,37.60
2019-03-22T08:42:17.937Z,37.20
2019-03-22T08:44:48.168Z,34.23
2019-03-22T08:47:32.884Z,39.07
2019-03-22T08:49:51.599Z,38.93
2019-03-22T08:52:21.627Z,35.60
2019-03-22T08:54:51.825Z,41.93
2019-03-22T08:57:24.809Z,34.80
2019-03-22T08:59:52.585Z,34.33
2019-03-22T09:02:23.121Z,40.23
2019-03-22T09:04:53.739Z,35.90
2019-03-22T09:07:28.350Z,38.67
2019-03-22T09:12:54.138Z,35.50
2019-03-22T09:15:40.649Z,36.60
2019-03-22T09:18:03.177Z,35.20
2019-03-22T09:20:33.385Z,35.63
2019-03-22T09:23:05.784Z,36.93
2019-03-22T09:25:38.749Z,32.63
2019-03-22T09:28:10.488Z,35.93
2019-03-22T09:30:39.608Z,34.77
2019-03-22T09:33:09.800Z,36.23
2019-03-22T09:35:41.667Z,39.80
2019-03-22T09:38:13.143Z,34.77
2019-03-22T09:40:40.827Z,38.67
2019-03-22T09:43:10.974Z,40.97
2019-03-22T09:45:42.059Z,34.80
2019-03-22T09:48:12.783Z,40.43
2019-03-22T09:50:43.235Z,35.33
2019-03-22T09:53:13.924Z,37.83
2019-03-22T09:55:46.805Z,35.75
2019-03-22T09:58:16.987Z,38.75
2019-03-22T10:00:48.722Z,39.57
2019-03-22T10:06:02.720Z,36.17
2019-03-22T10:08:34.921Z,38.87
2019-03-22T10:11:08.046Z,40.57
2019-03-22T10:13:36.282Z,37.23
2019-03-22T10:16:06.910Z,37.50
2019-03-22T10:18:37.513Z,32.95
2019-03-22T10:21:07.669Z,35.60
2019-03-22T10:23:37.942Z,36.60
2019-03-22T10:26:11.238Z,37.13
2019-03-22T10:28:41.412Z,39.65
2019-03-22T10:31:18.376Z,37.05
2019-03-22T10:33:47.368Z,35.75
2019-03-22T10:36:17.653Z,41.53
2019-03-22T10:41:30.380Z,36.50
2019-03-22T10:44:05.312Z,33.00
2019-03-22T10:46:35.967Z,31.20
2019-03-22T10:49:06.097Z,32.37
2019-03-22T10:51:36.318Z,34.18
2019-03-22T10:54:06.603Z,33.45
2019-03-22T10:56:36.825Z,31.62
2019-03-22T10:59:09.044Z,36.77
2019-03-22T11:01:48.637Z,36.05
2019-03-22T11:06:51.169Z,33.15
2019-03-22T11:09:21.399Z,31.50
2019-03-22T11:11:51.558Z,28.85
2019-03-22T11:14:22.201Z,33.38
2019-03-22T11:16:58.879Z,31.87
2019-03-22T11:19:22.941Z,31.65
2019-03-22T11:21:53.675Z,36.73
2019-03-22T11:24:24.354Z,35.15
2019-03-22T11:26:56.983Z,32.85
2019-03-22T11:32:13.154Z,30.30
2019-03-22T11:34:50.224Z,32.55
2019-03-22T11:37:25.948Z,38.88
2019-03-22T11:42:38.162Z,32.13
2019-03-22T11:53:21.853Z,28.47
2019-03-22T11:55:52.065Z,24.20
2019-03-22T11:58:28.760Z,26.10
2019-03-22T12:00:57.363Z,25.77
2019-03-22T12:03:27.246Z,26.57
2019-03-22T12:08:43.088Z,15.70
2019-03-22T12:16:48.775Z,14.83
2019-03-22T12:19:17.395Z,18.55
2019-03-22T12:21:50.881Z,17.32
2019-03-22T12:24:25.955Z,15.03
2019-03-22T12:27:00.167Z,14.90
2019-03-22T12:37:48.367Z,13.05
2019-03-22T12:45:50.449Z,11.75
2019-03-22T12:51:02.552Z,11.43
2019-03-22T12:53:28.728Z,12.05
2019-03-22T12:55:58.841Z,12.73
2019-03-22T13:03:53.725Z,15.10
2019-03-22T13:06:23.923Z,17.32
2019-03-22T13:08:54.120Z,16.25
2019-03-22T13:17:08.264Z,18.05
2019-03-22T13:22:31.755Z,19.98
2019-03-22T13:25:01.865Z,18.27
2019-03-22T13:27:35.612Z,25.37
2019-03-22T13:32:52.208Z,19.05
2019-03-22T13:38:15.512Z,21.77
2019-03-22T13:40:51.315Z,22.75
2019-03-22T13:43:31.877Z,9.98
2019-03-22T13:49:03.239Z,4.87
2019-03-22T13:51:19.074Z,3.75
2019-03-22T13:56:33.976Z,5.28
2019-03-22T13:59:04.440Z,4.90
2019-03-22T14:01:35.884Z,4.78
2019-03-22T14:04:07.551Z,3.95
2019-03-22T14:12:04.274Z,4.55
2019-03-22T14:14:36.487Z,6.25
2019-03-22T14:22:29.581Z,6.53
2019-03-22T14:25:02.727Z,4.40
2019-03-22T14:30:21.334Z,5.25
2019-03-22T14:35:36.783Z,6.45
2019-03-22T14:38:06.340Z,21.97
2019-03-22T14:40:35.327Z,24.85
2019-03-22T14:43:07.605Z,6.53
2019-03-22T14:45:37.823Z,5.80
2019-03-22T14:53:45.767Z,5.17
2019-03-22T14:56:22.643Z,5.30
2019-03-22T14:59:04.538Z,11.95
2019-03-22T15:01:27.501Z,23.85
2019-03-22T15:06:48.311Z,21.55
2019-03-22T15:09:15.158Z,21.85
2019-03-22T15:17:12.791Z,13.45
2019-03-22T15:22:31.628Z,6.83
2019-03-22T15:27:47.508Z,18.80
2019-03-22T15:33:08.996Z,16.25
2019-03-22T15:38:52.246Z,11.60
2019-03-22T15:41:19.177Z,18.50
2019-03-22T15:46:37.329Z,21.50
2019-03-22T15:51:53.363Z,20.52
2019-03-22T16:00:05.331Z,5.60
2019-03-22T16:03:01.000Z,3.92
2019-03-22T16:08:43.722Z,8.65
2019-03-22T16:10:54.083Z,12.07
2019-03-22T16:13:30.032Z,16.02
2019-03-22T16:16:06.243Z,17.05
2019-03-22T16:18:42.259Z,19.95
2019-03-22T16:21:14.062Z,22.22
2019-03-22T16:23:43.116Z,19.25
2019-03-22T16:26:13.335Z,17.48
2019-03-22T16:31:28.686Z,22.07
2019-03-22T16:36:57.186Z,17.40
2019-03-22T16:39:30.425Z,17.20
2019-03-22T16:47:38.892Z,16.02
2019-03-22T16:53:14.136Z,15.13
2019-03-22T16:55:47.123Z,14.23
2019-03-22T17:03:51.470Z,15.58
2019-03-22T17:06:18.567Z,17.60
2019-03-22T17:08:52.120Z,18.73
2019-03-22T17:14:07.358Z,14.55
2019-03-22T17:16:37.632Z,14.65
2019-03-22T17:19:11.644Z,35.68
2019-03-22T17:21:42.454Z,22.45
2019-03-22T17:32:55.966Z,15.05
2019-03-22T17:46:37.169Z,16.82
2019-03-22T17:49:10.720Z,16.32
2019-03-22T17:51:44.985Z,18.10
2019-03-22T17:54:19.510Z,20.55
2019-03-22T17:59:41.558Z,18.65
2019-03-22T18:02:20.427Z,18.50
2019-03-22T18:05:04.328Z,17.27
2019-03-22T18:07:26.970Z,16.75
2019-03-22T18:09:58.267Z,17.57
2019-03-22T18:12:28.998Z,19.67
2019-03-22T18:23:57.839Z,20.90
2019-03-22T18:30:04.087Z,18.27
2019-03-22T18:45:24.657Z,17.17
2019-03-22T18:47:54.769Z,17.67
2019-03-22T18:50:25.169Z,19.23
2019-03-22T18:52:55.211Z,19.80
2019-03-22T18:55:25.256Z,18.48
2019-03-22T18:57:55.301Z,16.73
2019-03-22T19:00:25.332Z,18.00
2019-03-22T19:02:55.408Z,19.37
2019-03-22T19:05:25.464Z,20.48
2019-03-22T19:07:55.499Z,21.07
2019-03-22T19:10:25.892Z,21.15
2019-03-22T19:15:35.295Z,20.70
2019-03-22T19:18:05.639Z,19.42
2019-03-22T19:20:35.672Z,15.65
2019-03-22T19:23:05.726Z,14.83
2019-03-22T19:25:35.757Z,19.50
2019-03-22T19:28:05.802Z,18.10
2019-03-22T19:33:15.469Z,18.00
2019-03-22T19:38:25.447Z,19.65
2019-03-22T19:40:55.748Z,24.32
2019-03-22T19:43:26.172Z,20.43
2019-03-22T19:45:56.235Z,20.70
2019-03-22T19:48:26.616Z,21.57
2019-03-22T19:50:56.667Z,25.82
2019-03-22T19:53:26.721Z,23.17
2019-03-22T19:55:56.778Z,21.37
2019-03-22T19:58:27.187Z,23.73
2019-03-22T20:00:57.225Z,21.33
2019-03-22T20:03:27.627Z,21.53
2019-03-22T20:05:57.955Z,24.47
2019-03-22T20:08:28.006Z,22.50
2019-03-22T20:10:58.039Z,23.07
2019-03-22T20:13:28.089Z,19.27
2019-03-22T20:15:58.136Z,22.95
2019-03-22T20:18:28.203Z,20.43
2019-03-22T20:20:58.561Z,20.27
2019-03-22T20:23:28.907Z,21.90
2019-03-22T20:25:59.306Z,21.90
2019-03-22T20:28:29.392Z,20.77
2019-03-22T20:30:59.751Z,26.80
2019-03-22T20:33:29.787Z,22.80
2019-03-22T20:35:59.835Z,25.30
2019-03-22T20:38:29.878Z,22.35
2019-03-22T20:41:00.215Z,22.10
2019-03-22T20:43:30.567Z,20.45
2019-03-22T20:46:00.615Z,24.23
2019-03-22T20:48:30.660Z,23.60
2019-03-22T20:51:00.725Z,24.98
2019-03-22T20:53:31.122Z,21.48
2019-03-22T20:56:01.191Z,24.65
2019-03-22T20:58:31.218Z,25.17
2019-03-22T21:01:01.609Z,26.25
2019-03-22T21:03:31.639Z,23.98
2019-03-22T21:06:04.490Z,25.27
2019-03-22T21:08:32.065Z,23.83
2019-03-22T21:11:02.459Z,24.33
2019-03-22T21:13:32.500Z,22.65
2019-03-22T21:16:02.540Z,25.63
2019-03-22T21:18:32.584Z,27.00
2019-03-22T21:21:02.641Z,26.37
2019-03-22T21:23:36.617Z,27.30
2019-03-22T21:26:02.737Z,27.77
2019-03-22T21:28:32.778Z,25.30
2019-03-22T21:31:02.817Z,25.97
2019-03-22T21:33:32.861Z,25.47
2019-03-22T21:36:02.911Z,25.03
2019-03-22T21:38:32.945Z,26.97
2019-03-22T21:41:03.015Z,26.93
2019-03-22T21:43:33.369Z,24.52
2019-03-22T21:46:03.427Z,28.37
2019-03-22T21:48:33.481Z,26.80
2019-03-22T21:51:03.842Z,28.03
2019-03-22T21:53:33.876Z,29.63
2019-03-22T21:58:43.637Z,27.87
2019-03-22T22:01:13.712Z,26.50
2019-03-22T22:03:43.750Z,31.17
2019-03-22T22:06:14.174Z,27.17
2019-03-22T22:08:44.214Z,28.97
2019-03-22T22:11:14.257Z,30.30
2019-03-22T22:13:44.608Z,28.57
2019-03-22T22:16:14.676Z,29.33
2019-03-22T22:18:44.698Z,29.77
2019-03-22T22:21:14.744Z,26.43
2019-03-22T22:23:45.135Z,27.20
2019-03-22T22:26:15.189Z,27.83
2019-03-22T22:28:45.524Z,26.77
2019-03-22T22:31:15.593Z,24.37
2019-03-22T22:33:45.630Z,27.50
2019-03-22T22:36:15.678Z,23.97
2019-03-22T22:38:46.002Z,25.17
2019-03-22T22:41:16.049Z,21.13
2019-03-22T22:43:46.084Z,23.35
2019-03-22T22:46:16.151Z,21.77
2019-03-22T22:48:46.190Z,20.67
2019-03-22T22:51:16.223Z,20.30
2019-03-22T22:53:46.259Z,18.80
2019-03-22T22:56:16.306Z,21.23
2019-03-22T22:58:46.360Z,19.73
2019-03-22T23:01:16.395Z,18.17
2019-03-22T23:03:46.767Z,14.67
2019-03-22T23:06:16.819Z,14.43
2019-03-22T23:08:46.866Z,14.53
2019-03-22T23:11:16.905Z,13.83
2019-03-22T23:13:47.244Z,13.33
2019-03-22T23:16:17.308Z,13.77
2019-03-22T23:18:47.359Z,13.03
2019-03-22T23:21:17.397Z,11.60
2019-03-22T23:23:47.463Z,11.47
2019-03-22T23:26:17.512Z,8.80
2019-03-22T23:28:47.562Z,8.83
2019-03-22T23:31:17.595Z,6.83
2019-03-22T23:33:47.644Z,9.17
2019-03-22T23:36:20.456Z,9.07
2019-03-22T23:38:48.035Z,8.23
2019-03-22T23:41:18.073Z,8.17
2019-03-22T23:43:48.121Z,10.77
2019-03-22T23:46:18.144Z,12.90
2019-03-22T23:48:48.478Z,8.20
2019-03-22T23:51:18.514Z,8.73
2019-03-22T23:53:48.934Z,8.80
2019-03-22T23:56:19.233Z,7.50
2019-03-22T23:58:49.290Z,6.93
